sensor_id;sensor_type;location;lat;lon;timestamp;pressure;altitude;pressure_sealevel;temperature;humidity
56600;BME280;51832;48.152;11.530;2023-10-19T00:04:29;94057.22;;;12.56;90.62
56600;BME280;51832;48.152;11.530;2023-10-19T00:09:33;94059.03;;;12.60;91.49
56600;BME280;51832;48.152;11.530;2023-10-19T00:14:37;94046.94;;;12.54;91.92
56600;BME280;51832;48.152;11.530;2023-10-19T00:19:38;94023.97;;;12.50;92.01
56600;BME280;51832;48.152;11.530;2023-10-19T00:24:57;94027.94;;;12.57;91.85
56600;BME280;51832;48.152;11.530;2023-10-19T00:29:59;94031.66;;;12.31;92.88
56600;BME280;51832;48.152;11.530;2023-10-19T00:35:06;94028.50;;;12.34;92.54
56600;BME280;51832;48.152;11.530;2023-10-19T00:40:27;94006.38;;;12.20;93.57
56600;BME280;51832;48.152;11.530;2023-10-19T00:45:37;93992.06;;;12.51;92.62
56600;BME280;51832;48.152;11.530;2023-10-19T00:50:40;94002.31;;;12.63;92.16
56600;BME280;51832;48.152;11.530;2023-10-19T00:55:40;93999.66;;;12.68;91.51
56600;BME280;51832;48.152;11.530;2023-10-19T01:00:42;94006.22;;;12.75;91.30
56600;BME280;51832;48.152;11.530;2023-10-19T01:05:45;93998.09;;;12.62;91.47
56600;BME280;51832;48.152;11.530;2023-10-19T01:10:50;93997.25;;;12.71;91.04
56600;BME280;51832;48.152;11.530;2023-10-19T01:15:53;93997.97;;;12.87;90.57
56600;BME280;51832;48.152;11.530;2023-10-19T01:20:57;93997.09;;;12.37;93.63
56600;BME280;51832;48.152;11.530;2023-10-19T01:25:59;94013.25;;;12.16;95.48
56600;BME280;51832;48.152;11.530;2023-10-19T01:36:14;94000.59;;;12.07;96.97
56600;BME280;51832;48.152;11.530;2023-10-19T01:41:24;94012.47;;;11.85;97.20
56600;BME280;51832;48.152;11.530;2023-10-19T01:46:24;94008.50;;;11.72;98.03
56600;BME280;51832;48.152;11.530;2023-10-19T01:51:27;93997.72;;;11.89;96.98
56600;BME280;51832;48.152;11.530;2023-10-19T01:56:28;93995.34;;;11.87;97.46
56600;BME280;51832;48.152;11.530;2023-10-19T02:01:29;93975.81;;;11.93;97.39
56600;BME280;51832;48.152;11.530;2023-10-19T02:06:33;93983.75;;;11.98;97.54
56600;BME280;51832;48.152;11.530;2023-10-19T02:11:34;93995.06;;;11.73;97.04
56600;BME280;51832;48.152;11.530;2023-10-19T02:16:38;94003.72;;;11.64;98.10
56600;BME280;51832;48.152;11.530;2023-10-19T02:21:38;93985.56;;;11.57;99.46
56600;BME280;51832;48.152;11.530;2023-10-19T02:26:42;93981.09;;;11.48;99.61
56600;BME280;51832;48.152;11.530;2023-10-19T02:31:44;93973.97;;;11.68;98.28
56600;BME280;51832;48.152;11.530;2023-10-19T02:36:45;93975.06;;;11.88;98.40
56600;BME280;51832;48.152;11.530;2023-10-19T02:41:48;93978.44;;;12.03;96.51
56600;BME280;51832;48.152;11.530;2023-10-19T02:46:55;93968.97;;;11.92;96.97
56600;BME280;51832;48.152;11.530;2023-10-19T02:51:59;93961.09;;;11.87;96.55
56600;BME280;51832;48.152;11.530;2023-10-19T02:57:04;93961.06;;;12.02;96.92
56600;BME280;51832;48.152;11.530;2023-10-19T03:02:07;93952.63;;;11.90;97.89
56600;BME280;51832;48.152;11.530;2023-10-19T03:07:16;93945.50;;;11.91;98.51
56600;BME280;51832;48.152;11.530;2023-10-19T03:12:19;93934.72;;;11.92;98.67
56600;BME280;51832;48.152;11.530;2023-10-19T03:17:20;93932.88;;;11.93;98.77
56600;BME280;51832;48.152;11.530;2023-10-19T03:22:20;93933.88;;;12.07;98.69
56600;BME280;51832;48.152;11.530;2023-10-19T03:27:21;93922.31;;;11.93;98.61
56600;BME280;51832;48.152;11.530;2023-10-19T03:32:25;93918.38;;;12.00;99.73
56600;BME280;51832;48.152;11.530;2023-10-19T03:37:35;93916.00;;;11.94;98.97
56600;BME280;51832;48.152;11.530;2023-10-19T03:42:36;93915.75;;;11.70;100.00
56600;BME280;51832;48.152;11.530;2023-10-19T03:47:47;93904.13;;;11.91;100.00
56600;BME280;51832;48.152;11.530;2023-10-19T03:52:50;93920.72;;;12.12;100.00
56600;BME280;51832;48.152;11.530;2023-10-19T03:57:52;93911.16;;;12.26;99.14
56600;BME280;51832;48.152;11.530;2023-10-19T04:02:54;93902.94;;;12.33;100.00
56600;BME280;51832;48.152;11.530;2023-10-19T04:07:55;93910.94;;;12.72;99.06
56600;BME280;51832;48.152;11.530;2023-10-19T04:12:57;93913.06;;;13.24;98.17
56600;BME280;51832;48.152;11.530;2023-10-19T04:18:01;93903.84;;;14.08;96.66
56600;BME280;51832;48.152;11.530;2023-10-19T04:23:02;93904.25;;;15.06;89.86
56600;BME280;51832;48.152;11.530;2023-10-19T04:28:10;93885.97;;;15.42;83.85
56600;BME280;51832;48.152;11.530;2023-10-19T04:33:11;93884.81;;;14.54;85.70
56600;BME280;51832;48.152;11.530;2023-10-19T04:38:11;93882.88;;;13.93;90.46
56600;BME280;51832;48.152;11.530;2023-10-19T04:43:11;93879.88;;;13.42;92.15
56600;BME280;51832;48.152;11.530;2023-10-19T04:48:12;93889.06;;;13.15;94.17
56600;BME280;51832;48.152;11.530;2023-10-19T04:53:12;93883.25;;;13.19;94.66
56600;BME280;51832;48.152;11.530;2023-10-19T04:58:13;93886.56;;;12.90;96.80
56600;BME280;51832;48.152;11.530;2023-10-19T05:03:13;93888.69;;;12.88;98.08
56600;BME280;51832;48.152;11.530;2023-10-19T05:08:18;93873.63;;;12.94;97.17
56600;BME280;51832;48.152;11.530;2023-10-19T05:13:19;93870.94;;;12.99;97.15
56600;BME280;51832;48.152;11.530;2023-10-19T05:18:20;93864.53;;;13.10;96.57
56600;BME280;51832;48.152;11.530;2023-10-19T05:23:24;93865.19;;;13.31;95.98
56600;BME280;51832;48.152;11.530;2023-10-19T05:28:25;93871.94;;;13.42;95.29
56600;BME280;51832;48.152;11.530;2023-10-19T05:33:29;93872.22;;;13.40;96.35
56600;BME280;51832;48.152;11.530;2023-10-19T05:38:29;93868.84;;;13.35;96.07
56600;BME280;51832;48.152;11.530;2023-10-19T05:43:32;93855.56;;;13.11;96.59
56600;BME280;51832;48.152;11.530;2023-10-19T05:48:33;93855.06;;;13.04;97.54
56600;BME280;51832;48.152;11.530;2023-10-19T05:53:34;93846.81;;;13.15;97.55
56600;BME280;51832;48.152;11.530;2023-10-19T05:58:34;93851.25;;;13.25;97.26
56600;BME280;51832;48.152;11.530;2023-10-19T06:03:35;93841.41;;;13.31;97.07
56600;BME280;51832;48.152;11.530;2023-10-19T06:08:35;93849.44;;;13.49;96.84
56600;BME280;51832;48.152;11.530;2023-10-19T06:13:36;93860.47;;;13.57;96.97
56600;BME280;51832;48.152;11.530;2023-10-19T06:18:36;93867.81;;;13.65;96.75
56600;BME280;51832;48.152;11.530;2023-10-19T06:23:37;93868.81;;;13.69;96.40
56600;BME280;51832;48.152;11.530;2023-10-19T06:28:38;93861.38;;;13.71;96.59
56600;BME280;51832;48.152;11.530;2023-10-19T06:33:40;93858.63;;;13.57;96.63
56600;BME280;51832;48.152;11.530;2023-10-19T06:38:41;93856.16;;;13.66;96.13
56600;BME280;51832;48.152;11.530;2023-10-19T06:43:42;93847.72;;;14.11;94.31
56600;BME280;51832;48.152;11.530;2023-10-19T06:48:43;93833.50;;;14.31;93.00
56600;BME280;51832;48.152;11.530;2023-10-19T06:53:43;93834.03;;;14.52;92.02
56600;BME280;51832;48.152;11.530;2023-10-19T06:58:44;93839.00;;;14.58;91.21
56600;BME280;51832;48.152;11.530;2023-10-19T07:03:44;93835.91;;;14.70;90.58
56600;BME280;51832;48.152;11.530;2023-10-19T07:08:45;93841.28;;;15.03;89.33
56600;BME280;51832;48.152;11.530;2023-10-19T07:13:46;93837.47;;;15.09;89.50
56600;BME280;51832;48.152;11.530;2023-10-19T07:18:47;93839.13;;;15.37;88.26
56600;BME280;51832;48.152;11.530;2023-10-19T07:23:47;93843.41;;;15.52;87.54
56600;BME280;51832;48.152;11.530;2023-10-19T07:28:52;93852.41;;;15.70;87.10
56600;BME280;51832;48.152;11.530;2023-10-19T07:33:53;93847.56;;;15.72;87.26
56600;BME280;51832;48.152;11.530;2023-10-19T07:38:57;93844.94;;;15.85;87.48
56600;BME280;51832;48.152;11.530;2023-10-19T07:43:57;93840.84;;;16.07;87.36
56600;BME280;51832;48.152;11.530;2023-10-19T07:48:58;93830.72;;;16.09;87.92
56600;BME280;51832;48.152;11.530;2023-10-19T07:54:01;93832.38;;;16.32;87.49
56600;BME280;51832;48.152;11.530;2023-10-19T07:59:01;93827.78;;;16.10;89.01
56600;BME280;51832;48.152;11.530;2023-10-19T08:04:01;93815.97;;;16.03;90.14
56600;BME280;51832;48.152;11.530;2023-10-19T08:09:02;93821.75;;;16.46;88.46
56600;BME280;51832;48.152;11.530;2023-10-19T08:14:05;93820.03;;;16.77;86.95
56600;BME280;51832;48.152;11.530;2023-10-19T08:19:05;93815.00;;;17.12;85.47
56600;BME280;51832;48.152;11.530;2023-10-19T08:24:07;93810.94;;;17.36;84.35
56600;BME280;51832;48.152;11.530;2023-10-19T08:29:13;93803.66;;;17.51;83.45
56600;BME280;51832;48.152;11.530;2023-10-19T08:34:14;93810.50;;;17.65;82.88
56600;BME280;51832;48.152;11.530;2023-10-19T08:39:14;93805.78;;;17.62;83.35
56600;BME280;51832;48.152;11.530;2023-10-19T08:44:14;93800.41;;;17.76;82.44
56600;BME280;51832;48.152;11.530;2023-10-19T08:49:18;93803.50;;;17.69;82.27
56600;BME280;51832;48.152;11.530;2023-10-19T08:54:19;93803.84;;;17.77;81.78
56600;BME280;51832;48.152;11.530;2023-10-19T08:59:20;93800.63;;;17.88;81.47
56600;BME280;51832;48.152;11.530;2023-10-19T09:04:21;93801.13;;;17.99;81.92
56600;BME280;51832;48.152;11.530;2023-10-19T09:09:22;93800.81;;;18.00;82.73
56600;BME280;51832;48.152;11.530;2023-10-19T09:14:32;93800.41;;;18.16;82.96
56600;BME280;51832;48.152;11.530;2023-10-19T09:19:45;93796.31;;;18.18;83.17
56600;BME280;51832;48.152;11.530;2023-10-19T09:24:49;93798.06;;;18.23;82.27
56600;BME280;51832;48.152;11.530;2023-10-19T09:29:50;93784.16;;;18.34;79.82
56600;BME280;51832;48.152;11.530;2023-10-19T09:34:53;93800.00;;;18.48;79.29
56600;BME280;51832;48.152;11.530;2023-10-19T09:39:55;93795.63;;;18.52;81.72
56600;BME280;51832;48.152;11.530;2023-10-19T09:44:59;93793.47;;;18.63;81.35
56600;BME280;51832;48.152;11.530;2023-10-19T09:50:06;93772.63;;;18.91;80.94
56600;BME280;51832;48.152;11.530;2023-10-19T09:55:19;93776.72;;;18.97;80.40
56600;BME280;51832;48.152;11.530;2023-10-19T10:00:23;93780.94;;;19.15;82.40
56600;BME280;51832;48.152;11.530;2023-10-19T10:15:48;93737.78;;;19.39;84.48
56600;BME280;51832;48.152;11.530;2023-10-19T10:20:48;93759.72;;;19.36;84.74
56600;BME280;51832;48.152;11.530;2023-10-19T10:25:50;93756.75;;;19.29;84.46
56600;BME280;51832;48.152;11.530;2023-10-19T10:31:13;93751.84;;;19.57;81.78
56600;BME280;51832;48.152;11.530;2023-10-19T10:36:15;93742.06;;;19.69;80.51
56600;BME280;51832;48.152;11.530;2023-10-19T10:41:23;93741.13;;;19.74;80.34
56600;BME280;51832;48.152;11.530;2023-10-19T10:46:30;93741.06;;;19.91;79.28
56600;BME280;51832;48.152;11.530;2023-10-19T10:51:30;93732.81;;;20.05;78.79
56600;BME280;51832;48.152;11.530;2023-10-19T10:56:31;93720.06;;;20.10;78.45
56600;BME280;51832;48.152;11.530;2023-10-19T11:01:32;93715.88;;;20.30;78.06
56600;BME280;51832;48.152;11.530;2023-10-19T11:06:48;93710.53;;;20.30;79.37
56600;BME280;51832;48.152;11.530;2023-10-19T11:11:49;93710.44;;;20.89;76.82
56600;BME280;51832;48.152;11.530;2023-10-19T11:16:49;93714.94;;;21.09;75.18
56600;BME280;51832;48.152;11.530;2023-10-19T11:21:53;93705.16;;;20.60;74.30
56600;BME280;51832;48.152;11.530;2023-10-19T11:26:54;93702.44;;;21.01;74.05
56600;BME280;51832;48.152;11.530;2023-10-19T11:31:59;93691.66;;;20.77;74.24
56600;BME280;51832;48.152;11.530;2023-10-19T11:37:00;93681.94;;;20.72;74.66
56600;BME280;51832;48.152;11.530;2023-10-19T11:42:03;93649.41;;;20.70;75.02
56600;BME280;51832;48.152;11.530;2023-10-19T11:47:05;93650.72;;;20.64;77.95
56600;BME280;51832;48.152;11.530;2023-10-19T11:52:05;93634.22;;;20.95;79.35
56600;BME280;51832;48.152;11.530;2023-10-19T11:57:07;93626.28;;;20.74;80.54
56600;BME280;51832;48.152;11.530;2023-10-19T12:02:07;93624.25;;;21.04;79.76
56600;BME280;51832;48.152;11.530;2023-10-19T12:07:09;93619.50;;;21.22;79.76
56600;BME280;51832;48.152;11.530;2023-10-19T12:12:10;93622.53;;;21.69;77.36
56600;BME280;51832;48.152;11.530;2023-10-19T12:17:11;93618.63;;;21.79;74.65
56600;BME280;51832;48.152;11.530;2023-10-19T12:22:12;93625.44;;;21.52;76.11
56600;BME280;51832;48.152;11.530;2023-10-19T12:27:13;93607.16;;;21.66;76.03
56600;BME280;51832;48.152;11.530;2023-10-19T12:32:13;93600.56;;;21.51;74.79
56600;BME280;51832;48.152;11.530;2023-10-19T12:37:14;93587.28;;;21.79;73.30
56600;BME280;51832;48.152;11.530;2023-10-19T12:42:15;93588.72;;;22.01;72.89
56600;BME280;51832;48.152;11.530;2023-10-19T12:47:16;93583.00;;;22.15;71.14
56600;BME280;51832;48.152;11.530;2023-10-19T12:52:17;93578.53;;;22.47;71.43
56600;BME280;51832;48.152;11.530;2023-10-19T12:57:18;93579.00;;;22.77;69.96
56600;BME280;51832;48.152;11.530;2023-10-19T13:02:20;93573.78;;;22.40;72.33
56600;BME280;51832;48.152;11.530;2023-10-19T13:07:20;93574.97;;;22.70;70.44
56600;BME280;51832;48.152;11.530;2023-10-19T13:12:21;93578.38;;;22.83;69.64
56600;BME280;51832;48.152;11.530;2023-10-19T13:17:23;93566.16;;;22.42;68.82
56600;BME280;51832;48.152;11.530;2023-10-19T13:22:25;93566.06;;;22.11;69.56
56600;BME280;51832;48.152;11.530;2023-10-19T13:27:25;93574.53;;;22.01;70.20
56600;BME280;51832;48.152;11.530;2023-10-19T13:32:30;93569.47;;;21.71;71.66
56600;BME280;51832;48.152;11.530;2023-10-19T13:37:33;93570.69;;;21.49;73.07
56600;BME280;51832;48.152;11.530;2023-10-19T13:42:33;93565.56;;;21.32;73.61
56600;BME280;51832;48.152;11.530;2023-10-19T13:47:35;93575.13;;;21.33;74.48
56600;BME280;51832;48.152;11.530;2023-10-19T13:52:35;93572.41;;;21.09;75.71
56600;BME280;51832;48.152;11.530;2023-10-19T13:57:36;93579.31;;;20.98;76.62
56600;BME280;51832;48.152;11.530;2023-10-19T14:02:36;93587.47;;;21.01;76.29
56600;BME280;51832;48.152;11.530;2023-10-19T14:07:37;93593.00;;;21.41;74.44
56600;BME280;51832;48.152;11.530;2023-10-19T14:12:40;93595.88;;;21.24;74.50
56600;BME280;51832;48.152;11.530;2023-10-19T14:17:45;93592.22;;;20.83;76.43
56600;BME280;51832;48.152;11.530;2023-10-19T14:23:11;93548.78;;;20.86;78.10
56600;BME280;51832;48.152;11.530;2023-10-19T14:28:12;93494.06;;;20.72;79.07
56600;BME280;51832;48.152;11.530;2023-10-19T14:33:12;93482.94;;;20.94;80.40
56600;BME280;51832;48.152;11.530;2023-10-19T14:38:12;93538.59;;;21.37;76.81
56600;BME280;51832;48.152;11.530;2023-10-19T14:43:15;93556.53;;;21.37;77.11
56600;BME280;51832;48.152;11.530;2023-10-19T14:48:15;93553.53;;;21.26;79.87
56600;BME280;51832;48.152;11.530;2023-10-19T14:53:19;93548.34;;;20.97;83.23
56600;BME280;51832;48.152;11.530;2023-10-19T14:58:19;93536.84;;;20.72;84.74
56600;BME280;51832;48.152;11.530;2023-10-19T15:03:20;93535.72;;;20.07;86.86
56600;BME280;51832;48.152;11.530;2023-10-19T15:08:21;93550.41;;;20.13;87.57
56600;BME280;51832;48.152;11.530;2023-10-19T15:13:27;93549.06;;;20.07;88.77
56600;BME280;51832;48.152;11.530;2023-10-19T15:18:27;93550.16;;;19.85;89.08
56600;BME280;51832;48.152;11.530;2023-10-19T15:23:28;93544.44;;;19.74;89.46
56600;BME280;51832;48.152;11.530;2023-10-19T15:28:29;93547.56;;;19.97;88.63
56600;BME280;51832;48.152;11.530;2023-10-19T15:33:33;93534.25;;;20.09;88.26
56600;BME280;51832;48.152;11.530;2023-10-19T15:38:33;93528.31;;;19.92;88.38
56600;BME280;51832;48.152;11.530;2023-10-19T15:43:34;93524.03;;;20.11;88.94
56600;BME280;51832;48.152;11.530;2023-10-19T15:48:34;93487.25;;;20.50;84.71
56600;BME280;51832;48.152;11.530;2023-10-19T15:53:35;93491.88;;;21.22;79.88
56600;BME280;51832;48.152;11.530;2023-10-19T15:58:36;93491.97;;;20.77;83.24
56600;BME280;51832;48.152;11.530;2023-10-19T16:03:36;93492.69;;;20.08;85.65
56600;BME280;51832;48.152;11.530;2023-10-19T16:08:37;93487.22;;;19.84;86.64
56600;BME280;51832;48.152;11.530;2023-10-19T16:13:37;93491.06;;;19.95;86.25
56600;BME280;51832;48.152;11.530;2023-10-19T16:18:39;93487.03;;;19.89;84.75
56600;BME280;51832;48.152;11.530;2023-10-19T16:23:40;93481.94;;;19.55;87.38
56600;BME280;51832;48.152;11.530;2023-10-19T16:28:40;93493.91;;;19.19;89.93
56600;BME280;51832;48.152;11.530;2023-10-19T16:33:42;93507.06;;;18.95;91.31
56600;BME280;51832;48.152;11.530;2023-10-19T16:38:43;93502.75;;;18.81;92.00
56600;BME280;51832;48.152;11.530;2023-10-19T16:43:44;93508.28;;;18.59;93.05
56600;BME280;51832;48.152;11.530;2023-10-19T16:48:44;93500.28;;;18.59;93.12
56600;BME280;51832;48.152;11.530;2023-10-19T16:53:45;93489.38;;;18.35;94.61
56600;BME280;51832;48.152;11.530;2023-10-19T16:58:45;93491.94;;;18.14;95.49
56600;BME280;51832;48.152;11.530;2023-10-19T17:03:46;93477.63;;;18.44;94.29
56600;BME280;51832;48.152;11.530;2023-10-19T17:08:46;93464.41;;;18.57;92.82
56600;BME280;51832;48.152;11.530;2023-10-19T17:13:47;93486.81;;;18.64;91.69
56600;BME280;51832;48.152;11.530;2023-10-19T17:18:53;93487.44;;;18.53;91.89
56600;BME280;51832;48.152;11.530;2023-10-19T17:23:53;93477.44;;;18.50;91.74
56600;BME280;51832;48.152;11.530;2023-10-19T17:28:55;93475.28;;;18.34;91.58
56600;BME280;51832;48.152;11.530;2023-10-19T17:33:56;93485.47;;;18.41;91.48
56600;BME280;51832;48.152;11.530;2023-10-19T17:38:57;93480.75;;;18.38;91.14
56600;BME280;51832;48.152;11.530;2023-10-19T17:43:57;93483.78;;;18.28;91.09
56600;BME280;51832;48.152;11.530;2023-10-19T17:48:57;93467.50;;;18.21;91.36
56600;BME280;51832;48.152;11.530;2023-10-19T17:53:58;93450.88;;;18.24;91.01
56600;BME280;51832;48.152;11.530;2023-10-19T17:58:58;93455.91;;;18.25;91.11
56600;BME280;51832;48.152;11.530;2023-10-19T18:03:59;93450.88;;;18.24;90.98
56600;BME280;51832;48.152;11.530;2023-10-19T18:08:59;93443.22;;;18.31;90.26
56600;BME280;51832;48.152;11.530;2023-10-19T18:14:00;93451.63;;;18.33;90.22
56600;BME280;51832;48.152;11.530;2023-10-19T18:19:01;93429.63;;;18.15;90.05
56600;BME280;51832;48.152;11.530;2023-10-19T18:24:02;93414.75;;;18.14;90.54
56600;BME280;51832;48.152;11.530;2023-10-19T18:29:08;93403.00;;;18.06;90.61
56600;BME280;51832;48.152;11.530;2023-10-19T18:34:08;93382.53;;;17.98;91.01
56600;BME280;51832;48.152;11.530;2023-10-19T18:39:08;93367.88;;;17.84;92.10
56600;BME280;51832;48.152;11.530;2023-10-19T18:44:09;93353.31;;;17.81;91.93
56600;BME280;51832;48.152;11.530;2023-10-19T18:49:09;93344.56;;;17.81;91.73
56600;BME280;51832;48.152;11.530;2023-10-19T18:54:11;93337.81;;;17.83;91.72
56600;BME280;51832;48.152;11.530;2023-10-19T18:59:11;93346.16;;;17.73;91.15
56600;BME280;51832;48.152;11.530;2023-10-19T19:04:11;93353.81;;;17.57;91.13
56600;BME280;51832;48.152;11.530;2023-10-19T19:09:12;93346.94;;;17.73;90.17
56600;BME280;51832;48.152;11.530;2023-10-19T19:14:12;93343.50;;;17.56;90.02
56600;BME280;51832;48.152;11.530;2023-10-19T19:19:13;93334.59;;;17.52;89.49
56600;BME280;51832;48.152;11.530;2023-10-19T19:24:13;93338.66;;;17.58;89.16
56600;BME280;51832;48.152;11.530;2023-10-19T19:29:14;93344.47;;;17.25;89.90
56600;BME280;51832;48.152;11.530;2023-10-19T19:34:16;93336.78;;;17.41;90.00
56600;BME280;51832;48.152;11.530;2023-10-19T19:39:17;93323.94;;;17.52;89.00
56600;BME280;51832;48.152;11.530;2023-10-19T19:44:18;93339.00;;;17.48;88.97
56600;BME280;51832;48.152;11.530;2023-10-19T19:49:18;93338.84;;;17.44;89.73
56600;BME280;51832;48.152;11.530;2023-10-19T19:54:19;93331.19;;;17.34;89.74
56600;BME280;51832;48.152;11.530;2023-10-19T19:59:22;93315.38;;;17.37;88.91
56600;BME280;51832;48.152;11.530;2023-10-19T20:04:23;93301.28;;;17.46;88.10
56600;BME280;51832;48.152;11.530;2023-10-19T20:09:26;93311.63;;;17.47;87.97
56600;BME280;51832;48.152;11.530;2023-10-19T20:14:26;93314.72;;;17.66;86.68
56600;BME280;51832;48.152;11.530;2023-10-19T20:19:27;93323.31;;;17.55;87.53
56600;BME280;51832;48.152;11.530;2023-10-19T20:24:27;93308.16;;;17.55;87.06
56600;BME280;51832;48.152;11.530;2023-10-19T20:29:28;93313.66;;;17.41;88.30
56600;BME280;51832;48.152;11.530;2023-10-19T20:34:29;93289.09;;;17.45;87.66
56600;BME280;51832;48.152;11.530;2023-10-19T20:39:30;93276.47;;;17.33;86.91
56600;BME280;51832;48.152;11.530;2023-10-19T20:44:33;93242.81;;;17.37;86.25
56600;BME280;51832;48.152;11.530;2023-10-19T20:49:43;93215.75;;;17.44;85.32
56600;BME280;51832;48.152;11.530;2023-10-19T20:54:45;93192.91;;;17.42;84.33
56600;BME280;51832;48.152;11.530;2023-10-19T20:59:45;93176.41;;;17.28;84.28
56600;BME280;51832;48.152;11.530;2023-10-19T21:04:46;93186.56;;;17.26;83.65
56600;BME280;51832;48.152;11.530;2023-10-19T21:09:46;93200.44;;;17.40;82.10
56600;BME280;51832;48.152;11.530;2023-10-19T21:14:47;93197.28;;;17.47;82.07
56600;BME280;51832;48.152;11.530;2023-10-19T21:19:47;93213.38;;;17.51;81.34
56600;BME280;51832;48.152;11.530;2023-10-19T21:24:48;93218.56;;;17.38;82.14
56600;BME280;51832;48.152;11.530;2023-10-19T21:29:48;93196.72;;;17.33;82.24
56600;BME280;51832;48.152;11.530;2023-10-19T21:34:49;93188.47;;;17.09;83.24
56600;BME280;51832;48.152;11.530;2023-10-19T21:39:50;93174.25;;;17.13;83.16
56600;BME280;51832;48.152;11.530;2023-10-19T21:44:50;93195.03;;;17.11;83.60
56600;BME280;51832;48.152;11.530;2023-10-19T21:49:52;93174.41;;;17.17;83.28
56600;BME280;51832;48.152;11.530;2023-10-19T21:54:55;93138.97;;;16.95;84.63
56600;BME280;51832;48.152;11.530;2023-10-19T21:59:55;93125.41;;;16.88;85.50
56600;BME280;51832;48.152;11.530;2023-10-19T22:04:56;93108.13;;;16.74;85.95
56600;BME280;51832;48.152;11.530;2023-10-19T22:09:56;93104.84;;;16.59;87.17
56600;BME280;51832;48.152;11.530;2023-10-19T22:14:57;93107.50;;;16.59;87.14
56600;BME280;51832;48.152;11.530;2023-10-19T22:19:58;93110.16;;;16.68;86.71
56600;BME280;51832;48.152;11.530;2023-10-19T22:24:58;93100.81;;;16.53;87.58
56600;BME280;51832;48.152;11.530;2023-10-19T22:29:59;93080.97;;;16.42;88.01
56600;BME280;51832;48.152;11.530;2023-10-19T22:35:01;93097.50;;;16.56;87.98
56600;BME280;51832;48.152;11.530;2023-10-19T22:40:01;93078.94;;;16.65;87.72
56600;BME280;51832;48.152;11.530;2023-10-19T22:45:02;93083.16;;;16.66;87.18
56600;BME280;51832;48.152;11.530;2023-10-19T22:50:05;93074.53;;;16.69;86.99
56600;BME280;51832;48.152;11.530;2023-10-19T22:55:06;93074.41;;;16.65;86.85
56600;BME280;51832;48.152;11.530;2023-10-19T23:00:08;93063.47;;;16.50;87.66
56600;BME280;51832;48.152;11.530;2023-10-19T23:05:14;93043.50;;;16.44;87.11
56600;BME280;51832;48.152;11.530;2023-10-19T23:10:16;93026.75;;;16.60;86.59
56600;BME280;51832;48.152;11.530;2023-10-19T23:15:19;93037.28;;;16.40;87.36
56600;BME280;51832;48.152;11.530;2023-10-19T23:20:31;93031.47;;;16.46;87.32
56600;BME280;51832;48.152;11.530;2023-10-19T23:25:32;93030.03;;;16.57;86.65
56600;BME280;51832;48.152;11.530;2023-10-19T23:30:34;93035.66;;;16.56;86.50
56600;BME280;51832;48.152;11.530;2023-10-19T23:35:35;93023.34;;;16.51;86.81
56600;BME280;51832;48.152;11.530;2023-10-19T23:40:36;93004.91;;;16.55;86.86
56600;BME280;51832;48.152;11.530;2023-10-19T23:45:37;92998.38;;;16.44;87.50
56600;BME280;51832;48.152;11.530;2023-10-19T23:50:40;92993.69;;;16.49;87.03
56600;BME280;51832;48.152;11.530;2023-10-19T23:55:41;92978.84;;;16.48;86.41
